createdAt,value
2018-07-20T00:00:24.316Z,15.90
2018-07-20T00:02:52.484Z,16.00
2018-07-20T00:05:20.686Z,16.82
2018-07-20T00:07:49.356Z,16.95
2018-07-20T00:10:17.559Z,15.10
2018-07-20T00:12:45.693Z,16.55
2018-07-20T00:15:13.888Z,16.48
2018-07-20T00:17:42.109Z,16.30
2018-07-20T00:20:10.252Z,16.75
2018-07-20T00:22:38.352Z,14.50
2018-07-20T00:25:06.455Z,16.32
2018-07-20T00:27:34.663Z,15.20
2018-07-20T00:30:02.777Z,16.12
2018-07-20T00:32:30.939Z,15.53
2018-07-20T00:34:59.035Z,16.57
2018-07-20T00:37:27.116Z,16.17
2018-07-20T00:39:55.255Z,16.05
2018-07-20T00:42:23.333Z,16.20
2018-07-20T00:44:51.437Z,16.52
2018-07-20T00:47:19.571Z,15.98
2018-07-20T00:49:47.688Z,15.80
2018-07-20T00:52:15.812Z,16.12
2018-07-20T00:57:18.533Z,16.10
2018-07-20T00:59:46.680Z,16.67
2018-07-20T01:02:14.759Z,15.63
2018-07-20T01:04:42.893Z,16.32
2018-07-20T01:07:11.047Z,16.12
2018-07-20T01:09:39.199Z,15.68
2018-07-20T01:12:07.424Z,16.85
2018-07-20T01:14:35.536Z,16.77
2018-07-20T01:17:03.635Z,17.27
2018-07-20T01:19:31.759Z,16.37
2018-07-20T01:21:59.910Z,16.70
2018-07-20T01:24:29.128Z,15.88
2018-07-20T01:26:57.221Z,16.67
2018-07-20T01:29:25.319Z,16.20
2018-07-20T01:31:53.423Z,17.95
2018-07-20T01:34:21.536Z,17.32
2018-07-20T01:36:49.698Z,18.50
2018-07-20T01:39:17.779Z,16.77
2018-07-20T01:41:45.875Z,16.17
2018-07-20T01:44:13.999Z,17.98
2018-07-20T01:46:42.102Z,15.13
2018-07-20T01:49:10.212Z,16.20
2018-07-20T01:51:38.315Z,15.05
2018-07-20T01:54:06.479Z,18.02
2018-07-20T01:56:34.655Z,17.20
2018-07-20T01:59:02.756Z,18.27
2018-07-20T02:01:30.903Z,18.35
2018-07-20T02:03:59.016Z,18.15
2018-07-20T02:06:27.268Z,17.25
2018-07-20T02:08:55.396Z,17.12
2018-07-20T02:11:23.494Z,18.35
2018-07-20T02:13:51.583Z,18.57
2018-07-20T02:16:19.678Z,18.45
2018-07-20T02:18:47.783Z,16.12
2018-07-20T02:21:15.892Z,18.30
2018-07-20T02:23:44.012Z,18.00
2018-07-20T02:26:12.116Z,18.00
2018-07-20T02:28:40.213Z,16.97
2018-07-20T02:31:08.328Z,18.40
2018-07-20T02:33:36.619Z,17.92
2018-07-20T02:36:04.763Z,18.10
2018-07-20T02:38:32.896Z,18.57
2018-07-20T02:41:01.055Z,18.07
2018-07-20T02:43:29.139Z,18.60
2018-07-20T02:45:57.441Z,17.10
2018-07-20T02:48:25.538Z,16.93
2018-07-20T02:50:53.644Z,17.57
2018-07-20T02:53:21.823Z,17.17
2018-07-20T02:55:49.902Z,17.00
2018-07-20T02:58:18.101Z,17.65
2018-07-20T03:00:46.273Z,17.95
2018-07-20T03:03:14.368Z,18.05
2018-07-20T03:05:42.484Z,17.90
2018-07-20T03:08:10.603Z,17.02
2018-07-20T03:10:38.700Z,19.37
2018-07-20T03:13:06.971Z,17.42
2018-07-20T03:15:35.212Z,15.90
2018-07-20T03:18:03.339Z,18.07
2018-07-20T03:20:31.476Z,18.12
2018-07-20T03:22:59.579Z,16.02
2018-07-20T03:25:27.675Z,17.20
2018-07-20T03:27:55.819Z,16.65
2018-07-20T03:30:24.118Z,17.15
2018-07-20T03:32:52.420Z,18.50
2018-07-20T03:35:20.455Z,19.62
2018-07-20T03:37:48.659Z,18.92
2018-07-20T03:40:16.768Z,16.70
2018-07-20T03:42:44.859Z,18.87
2018-07-20T03:45:13.036Z,16.90
2018-07-20T03:47:41.147Z,20.97
2018-07-20T03:50:09.304Z,19.20
2018-07-20T03:52:37.394Z,17.82
2018-07-20T03:55:05.591Z,18.57
2018-07-20T03:57:33.711Z,19.23
2018-07-20T04:00:01.779Z,19.25
2018-07-20T04:02:29.933Z,18.57
2018-07-20T04:04:58.231Z,18.25
2018-07-20T04:07:26.354Z,17.80
2018-07-20T04:09:54.456Z,18.10
2018-07-20T04:12:22.543Z,19.60
2018-07-20T04:14:50.651Z,19.05
2018-07-20T04:17:18.779Z,18.37
2018-07-20T04:19:46.928Z,18.55
2018-07-20T04:22:15.020Z,19.65
2018-07-20T04:24:43.188Z,18.10
2018-07-20T04:27:11.280Z,18.52
2018-07-20T04:29:39.451Z,18.12
2018-07-20T04:32:07.599Z,17.20
2018-07-20T04:34:35.787Z,17.40
2018-07-20T04:37:03.975Z,15.32
2018-07-20T04:39:32.103Z,17.10
2018-07-20T04:42:00.267Z,17.02
2018-07-20T04:44:28.373Z,16.52
2018-07-20T04:46:56.477Z,17.48
2018-07-20T04:49:24.616Z,17.35
2018-07-20T04:51:52.721Z,15.98
2018-07-20T04:54:20.864Z,16.15
2018-07-20T04:56:49.083Z,16.32
2018-07-20T04:59:17.359Z,17.02
2018-07-20T05:01:45.485Z,14.65
2018-07-20T05:04:13.620Z,15.03
2018-07-20T05:06:41.741Z,14.50
2018-07-20T05:09:10.430Z,16.53
2018-07-20T05:11:39.239Z,14.15
2018-07-20T05:14:07.387Z,14.80
2018-07-20T05:16:35.673Z,15.40
2018-07-20T05:19:03.911Z,13.40
2018-07-20T05:21:32.083Z,13.25
2018-07-20T05:24:00.230Z,14.50
2018-07-20T05:26:28.265Z,14.20
2018-07-20T05:28:56.335Z,13.83
2018-07-20T05:31:24.378Z,14.53
2018-07-20T05:33:52.455Z,14.63
2018-07-20T05:36:20.579Z,14.90
2018-07-20T05:38:48.703Z,14.77
2018-07-20T05:41:16.759Z,14.80
2018-07-20T05:43:45.019Z,13.00
2018-07-20T05:46:13.099Z,15.47
2018-07-20T05:48:41.183Z,13.73
2018-07-20T05:51:09.400Z,13.70
2018-07-20T05:53:37.511Z,16.67
2018-07-20T05:56:05.752Z,15.03
2018-07-20T05:58:34.002Z,18.47
2018-07-20T06:01:02.132Z,18.10
2018-07-20T06:03:30.473Z,17.53
2018-07-20T06:05:59.056Z,17.73
2018-07-20T06:08:27.161Z,18.30
2018-07-20T06:10:55.340Z,18.67
2018-07-20T06:13:23.416Z,16.10
2018-07-20T06:15:51.648Z,16.53
2018-07-20T06:18:19.734Z,14.60
2018-07-20T06:20:47.827Z,16.63
2018-07-20T06:23:15.933Z,16.37
2018-07-20T06:25:44.043Z,17.10
2018-07-20T06:28:12.117Z,15.83
2018-07-20T06:30:40.255Z,15.20
2018-07-20T06:33:08.325Z,15.07
2018-07-20T06:35:36.415Z,14.40
2018-07-20T06:38:04.896Z,14.30
2018-07-20T06:40:33.063Z,13.73
2018-07-20T06:43:01.227Z,10.87
2018-07-20T06:45:29.303Z,11.10
2018-07-20T06:47:57.395Z,12.57
2018-07-20T06:50:25.531Z,12.30
2018-07-20T06:52:53.600Z,12.77
2018-07-20T06:55:21.680Z,11.43
2018-07-20T06:57:49.765Z,11.30
2018-07-20T07:00:17.831Z,9.97
2018-07-20T07:02:45.942Z,11.60
2018-07-20T07:05:14.040Z,10.10
2018-07-20T07:07:42.147Z,9.47
2018-07-20T07:10:10.327Z,13.47
2018-07-20T07:12:38.493Z,10.23
2018-07-20T07:15:06.704Z,8.73
2018-07-20T07:17:34.695Z,11.70
2018-07-20T07:20:02.759Z,9.40
2018-07-20T07:22:31.017Z,9.90
2018-07-20T07:24:59.088Z,10.53
2018-07-20T07:27:27.249Z,7.90
2018-07-20T07:29:55.315Z,13.00
2018-07-20T07:32:23.395Z,10.53
2018-07-20T07:34:52.370Z,8.40
2018-07-20T07:37:20.436Z,9.37
2018-07-20T07:39:48.596Z,7.43
2018-07-20T07:42:16.757Z,8.03
2018-07-20T07:44:44.739Z,10.40
2018-07-20T07:47:12.803Z,8.33
2018-07-20T07:49:40.879Z,7.37
2018-07-20T07:52:08.963Z,6.40
2018-07-20T07:54:37.099Z,5.97
2018-07-20T07:57:05.312Z,5.57
2018-07-20T07:59:33.371Z,5.90
2018-07-20T08:02:01.483Z,5.20
2018-07-20T08:04:29.625Z,5.80
2018-07-20T08:06:57.712Z,5.50
2018-07-20T08:09:25.799Z,6.40
2018-07-20T08:12:00.616Z,5.63
2018-07-20T08:14:28.751Z,5.30
2018-07-20T08:16:56.863Z,6.20
2018-07-20T08:19:24.934Z,5.13
2018-07-20T08:21:53.021Z,4.90
2018-07-20T08:24:21.079Z,5.67
2018-07-20T08:26:49.147Z,4.40
2018-07-20T08:29:17.240Z,5.00
2018-07-20T08:31:45.325Z,5.53
2018-07-20T08:34:15.323Z,4.63
2018-07-20T08:36:43.419Z,4.80
2018-07-20T08:39:11.513Z,5.23
2018-07-20T08:41:39.676Z,4.90
2018-07-20T08:44:07.834Z,4.17
2018-07-20T08:46:35.965Z,4.87
2018-07-20T08:49:04.015Z,5.87
2018-07-20T08:51:32.131Z,5.50
2018-07-20T08:54:00.324Z,5.70
2018-07-20T08:56:28.347Z,6.87
2018-07-20T08:58:56.442Z,5.70
2018-07-20T09:01:24.531Z,5.73
2018-07-20T09:03:52.624Z,4.97
2018-07-20T09:06:20.750Z,6.00
2018-07-20T09:08:48.819Z,5.87
2018-07-20T09:11:16.957Z,7.43
2018-07-20T09:13:45.243Z,4.87
2018-07-20T09:16:13.134Z,5.20
2018-07-20T09:18:41.433Z,5.60
2018-07-20T09:21:09.694Z,5.57
2018-07-20T09:23:37.776Z,5.90
2018-07-20T09:26:05.891Z,6.10
2018-07-20T09:28:33.987Z,5.87
2018-07-20T09:31:02.058Z,6.37
2018-07-20T09:33:30.160Z,5.57
2018-07-20T09:35:58.242Z,4.93
2018-07-20T09:38:26.403Z,5.57
2018-07-20T09:40:54.479Z,5.23
2018-07-20T09:43:22.603Z,5.77
2018-07-20T09:45:51.003Z,5.33
2018-07-20T09:48:19.099Z,5.60
2018-07-20T09:50:47.148Z,5.83
2018-07-20T09:53:15.204Z,6.00
2018-07-20T09:55:43.301Z,6.40
2018-07-20T09:58:11.364Z,5.73
2018-07-20T10:00:44.883Z,5.53
2018-07-20T10:03:13.117Z,5.40
2018-07-20T10:05:41.184Z,5.93
2018-07-20T10:08:09.428Z,6.10
2018-07-20T10:10:37.525Z,6.37
2018-07-20T10:13:05.828Z,5.87
2018-07-20T10:15:33.931Z,5.80
2018-07-20T10:18:02.093Z,5.90
2018-07-20T10:20:30.368Z,5.40
2018-07-20T10:22:58.548Z,5.60
2018-07-20T10:25:26.716Z,5.33
2018-07-20T10:27:54.808Z,5.10
2018-07-20T10:30:23.037Z,5.40
2018-07-20T10:32:51.079Z,5.00
2018-07-20T10:35:19.750Z,5.70
2018-07-20T10:37:47.824Z,5.33
2018-07-20T10:40:15.913Z,5.53
2018-07-20T10:42:43.995Z,9.43
2018-07-20T10:45:15.478Z,5.43
2018-07-20T10:47:43.628Z,6.30
2018-07-20T10:50:13.291Z,6.23
2018-07-20T10:52:42.745Z,5.60
2018-07-20T10:55:11.636Z,6.10
2018-07-20T10:57:39.725Z,5.67
2018-07-20T11:00:08.819Z,6.37
2018-07-20T11:02:37.180Z,5.97
2018-07-20T11:05:05.276Z,5.63
2018-07-20T11:07:33.540Z,6.57
2018-07-20T11:10:01.653Z,6.13
2018-07-20T11:12:29.719Z,5.70
2018-07-20T11:14:57.794Z,6.90
2018-07-20T11:17:25.851Z,5.73
2018-07-20T11:19:53.915Z,5.80
2018-07-20T11:22:21.999Z,7.63
2018-07-20T11:24:50.156Z,6.30
2018-07-20T11:27:18.211Z,5.40
2018-07-20T11:29:46.307Z,6.40
2018-07-20T11:32:14.447Z,6.30
2018-07-20T11:34:42.537Z,6.00
2018-07-20T11:37:10.595Z,5.47
2018-07-20T11:39:38.787Z,6.27
2018-07-20T11:42:06.859Z,6.00
2018-07-20T11:44:34.929Z,5.37
2018-07-20T11:47:03.027Z,5.73
2018-07-20T11:49:31.091Z,5.30
2018-07-20T11:51:59.172Z,5.80
2018-07-20T11:54:27.238Z,5.73
2018-07-20T11:56:55.372Z,5.97
2018-07-20T11:59:23.641Z,5.13
2018-07-20T12:01:51.751Z,6.07
2018-07-20T12:04:19.806Z,6.33
2018-07-20T12:06:47.905Z,5.87
2018-07-20T12:09:16.001Z,5.40
2018-07-20T12:11:44.103Z,6.17
2018-07-20T12:14:12.174Z,5.97
2018-07-20T12:16:40.259Z,6.13
2018-07-20T12:19:08.417Z,5.37
2018-07-20T12:21:36.463Z,8.00
2018-07-20T12:24:04.552Z,6.10
2018-07-20T12:26:32.659Z,5.40
2018-07-20T12:29:00.712Z,5.87
2018-07-20T12:31:28.830Z,5.47
2018-07-20T12:33:56.909Z,5.50
2018-07-20T12:36:24.958Z,5.13
2018-07-20T12:38:53.194Z,5.57
2018-07-20T12:41:21.327Z,5.80
2018-07-20T12:43:49.402Z,6.00
2018-07-20T12:46:17.507Z,5.57
2018-07-20T12:48:45.710Z,5.10
2018-07-20T12:51:13.771Z,5.53
2018-07-20T12:53:41.848Z,5.90
2018-07-20T12:56:09.962Z,5.30
2018-07-20T12:58:38.408Z,5.67
2018-07-20T13:01:06.463Z,6.03
2018-07-20T13:03:34.635Z,5.83
2018-07-20T13:06:02.776Z,5.20
2018-07-20T13:08:31.347Z,5.83
2018-07-20T13:10:59.423Z,5.70
2018-07-20T13:13:27.520Z,6.13
2018-07-20T13:15:55.603Z,6.27
2018-07-20T13:18:23.804Z,5.93
2018-07-20T13:20:51.894Z,5.10
2018-07-20T13:23:19.980Z,4.97
2018-07-20T13:25:48.223Z,5.70
2018-07-20T13:28:16.275Z,5.17
2018-07-20T13:30:44.451Z,5.80
2018-07-20T13:33:12.518Z,5.03
2018-07-20T13:35:40.608Z,5.83
2018-07-20T13:38:09.071Z,5.30
2018-07-20T13:40:37.201Z,6.07
2018-07-20T13:43:05.278Z,5.47
2018-07-20T13:45:34.277Z,5.90
2018-07-20T13:48:02.567Z,5.20
2018-07-20T13:50:30.635Z,5.37
2018-07-20T13:52:58.845Z,6.17
2018-07-20T13:55:27.380Z,6.00
2018-07-20T13:57:55.463Z,6.00
2018-07-20T14:00:26.569Z,5.30
2018-07-20T14:02:54.643Z,4.93
2018-07-20T14:05:22.740Z,5.30
2018-07-20T14:07:51.614Z,5.70
2018-07-20T14:10:19.825Z,5.57
2018-07-20T14:12:47.947Z,5.23
2018-07-20T14:15:16.003Z,5.30
2018-07-20T14:17:44.102Z,7.23
2018-07-20T14:20:12.225Z,5.13
2018-07-20T14:22:40.263Z,5.10
2018-07-20T14:25:08.436Z,4.93
2018-07-20T14:27:39.356Z,4.27
2018-07-20T14:30:10.391Z,5.77
2018-07-20T14:32:38.667Z,5.60
2018-07-20T14:35:06.740Z,5.63
2018-07-20T14:37:34.811Z,4.87
2018-07-20T14:40:03.075Z,5.40
2018-07-20T14:42:31.308Z,5.70
2018-07-20T14:44:59.949Z,5.10
2018-07-20T14:47:28.198Z,6.03
2018-07-20T14:49:56.295Z,4.80
2018-07-20T14:52:24.563Z,4.63
2018-07-20T14:54:52.700Z,5.73
2018-07-20T14:57:20.839Z,5.90
2018-07-20T14:59:54.472Z,5.70
2018-07-20T15:02:26.533Z,5.23
2018-07-20T15:04:54.846Z,5.87
2018-07-20T15:07:22.914Z,5.50
2018-07-20T15:09:51.006Z,5.13
2018-07-20T15:12:19.130Z,4.77
2018-07-20T15:14:48.116Z,5.30
2018-07-20T15:17:16.243Z,6.00
2018-07-20T15:19:44.438Z,5.23
2018-07-20T15:22:16.297Z,5.10
2018-07-20T15:24:47.646Z,5.10
2018-07-20T15:27:15.882Z,7.30
2018-07-20T15:29:43.940Z,5.00
2018-07-20T15:32:12.001Z,5.63
2018-07-20T15:34:40.086Z,5.97
2018-07-20T15:37:08.357Z,5.53
2018-07-20T15:39:36.524Z,5.70
2018-07-20T15:42:04.583Z,5.03
2018-07-20T15:44:32.845Z,5.93
2018-07-20T15:47:01.261Z,5.93
2018-07-20T15:49:29.093Z,5.63
2018-07-20T15:53:35.607Z,5.33
2018-07-20T15:54:25.238Z,7.47
2018-07-20T15:56:53.311Z,7.13
2018-07-20T15:59:21.799Z,8.60
2018-07-20T16:01:49.878Z,6.80
2018-07-20T16:04:17.986Z,9.07
2018-07-20T16:06:46.426Z,6.00
2018-07-20T16:09:14.568Z,6.03
2018-07-20T16:11:42.514Z,5.13
2018-07-20T16:14:10.615Z,7.50
2018-07-20T16:16:38.662Z,6.13
2018-07-20T16:19:07.384Z,6.07
2018-07-20T16:21:35.614Z,5.80
2018-07-20T16:24:04.491Z,5.13
2018-07-20T16:26:34.402Z,5.60
2018-07-20T16:29:02.857Z,6.10
2018-07-20T16:31:31.090Z,5.70
2018-07-20T16:34:00.013Z,6.27
2018-07-20T16:36:28.196Z,6.03
2018-07-20T16:38:56.307Z,6.43
2018-07-20T16:41:24.658Z,5.90
2018-07-20T16:43:52.739Z,6.33
2018-07-20T16:46:20.819Z,7.47
2018-07-20T16:48:48.952Z,6.53
2018-07-20T16:51:16.990Z,5.10
2018-07-20T16:53:45.070Z,5.70
2018-07-20T16:56:13.145Z,5.23
2018-07-20T16:58:41.242Z,6.37
2018-07-20T17:01:09.797Z,6.10
2018-07-20T17:03:37.880Z,7.03
2018-07-20T17:06:05.999Z,6.10
2018-07-20T17:08:34.565Z,5.97
2018-07-20T17:11:02.700Z,6.30
2018-07-20T17:13:30.826Z,6.00
2018-07-20T17:15:58.936Z,6.23
2018-07-20T17:18:26.986Z,6.10
2018-07-20T17:20:55.079Z,6.87
2018-07-20T17:23:23.223Z,6.03
2018-07-20T17:25:51.360Z,6.40
2018-07-20T17:28:19.456Z,7.00
2018-07-20T17:30:47.583Z,6.47
2018-07-20T17:33:15.737Z,6.43
2018-07-20T17:35:43.780Z,10.73
2018-07-20T17:38:11.854Z,6.47
2018-07-20T17:40:40.003Z,7.00
2018-07-20T17:43:08.076Z,7.20
2018-07-20T17:45:36.142Z,6.70
2018-07-20T17:48:04.187Z,6.77
2018-07-20T17:50:32.287Z,7.07
2018-07-20T17:53:02.988Z,7.17
2018-07-20T17:55:31.747Z,7.63
2018-07-20T17:57:59.830Z,7.30
2018-07-20T18:00:27.884Z,6.93
2018-07-20T18:02:55.995Z,7.13
2018-07-20T18:05:24.199Z,7.27
2018-07-20T18:07:52.342Z,7.40
2018-07-20T18:10:20.577Z,7.30
2018-07-20T18:12:48.756Z,8.00
2018-07-20T18:15:16.795Z,7.50
2018-07-20T18:17:44.906Z,12.53
2018-07-20T18:20:13.100Z,8.73
2018-07-20T18:22:41.155Z,9.73
2018-07-20T18:25:09.360Z,7.73
2018-07-20T18:27:37.427Z,7.50
2018-07-20T18:30:05.586Z,7.07
2018-07-20T18:32:33.727Z,8.33
2018-07-20T18:35:01.798Z,7.40
2018-07-20T18:37:29.896Z,7.33
2018-07-20T18:39:58.418Z,6.70
2018-07-20T18:42:26.613Z,7.43
2018-07-20T18:44:54.763Z,7.03
2018-07-20T18:47:22.854Z,7.23
2018-07-20T18:49:51.123Z,7.20
2018-07-20T18:52:19.218Z,6.93
2018-07-20T18:54:47.331Z,7.90
2018-07-20T18:57:15.568Z,7.27
2018-07-20T18:59:43.859Z,7.90
2018-07-20T19:02:11.978Z,7.57
2018-07-20T19:04:40.176Z,7.33
2018-07-20T19:07:08.407Z,8.63
2018-07-20T19:09:36.520Z,6.77
2018-07-20T19:12:04.812Z,7.77
2018-07-20T19:14:32.927Z,8.27
2018-07-20T19:17:01.665Z,7.20
2018-07-20T19:19:30.220Z,8.40
2018-07-20T19:21:58.567Z,7.53
2018-07-20T19:24:26.737Z,8.00
2018-07-20T19:26:55.703Z,8.00
2018-07-20T19:29:24.165Z,7.43
2018-07-20T19:31:52.362Z,7.70
2018-07-20T19:34:20.474Z,7.13
2018-07-20T19:36:48.594Z,9.03
2018-07-20T19:39:16.706Z,7.37
2018-07-20T19:41:44.791Z,7.80
2018-07-20T19:44:13.001Z,7.47
2018-07-20T19:46:41.063Z,8.83
2018-07-20T19:49:09.135Z,7.30
2018-07-20T19:51:37.231Z,8.00
2018-07-20T19:54:05.429Z,8.40
2018-07-20T19:56:33.640Z,9.33
2018-07-20T19:59:01.809Z,8.63
2018-07-20T20:01:29.871Z,10.13
2018-07-20T20:03:58.025Z,8.20
2018-07-20T20:06:26.191Z,8.73
2018-07-20T20:08:54.355Z,9.77
2018-07-20T20:11:22.591Z,10.43
2018-07-20T20:13:50.778Z,10.43
2018-07-20T20:16:19.195Z,8.53
2018-07-20T20:18:47.329Z,8.73
2018-07-20T20:21:15.415Z,8.97
2018-07-20T20:23:43.603Z,10.33
2018-07-20T20:26:13.463Z,10.30
2018-07-20T20:28:42.216Z,10.13
2018-07-20T20:31:10.412Z,9.70
2018-07-20T20:33:38.863Z,9.47
2018-07-20T20:36:06.930Z,9.37
2018-07-20T20:38:35.136Z,10.53
2018-07-20T20:41:03.447Z,11.53
2018-07-20T20:43:31.532Z,11.27
2018-07-20T20:45:59.615Z,9.87
2018-07-20T20:48:27.749Z,10.70
2018-07-20T20:50:56.000Z,9.80
2018-07-20T20:53:24.189Z,10.20
2018-07-20T20:55:52.421Z,10.70
2018-07-20T20:58:20.733Z,10.30
2018-07-20T21:00:49.275Z,11.20
2018-07-20T21:03:17.427Z,11.97
2018-07-20T21:05:45.641Z,12.23
2018-07-20T21:08:13.808Z,11.73
2018-07-20T21:10:41.959Z,11.63
2018-07-20T21:13:10.863Z,10.73
2018-07-20T21:15:39.031Z,11.00
2018-07-20T21:18:07.218Z,11.53
2018-07-20T21:20:35.300Z,11.87
2018-07-20T21:23:03.465Z,11.67
2018-07-20T21:25:32.243Z,12.37
2018-07-20T21:28:00.398Z,12.93
2018-07-20T21:30:29.029Z,11.20
2018-07-20T21:32:57.159Z,13.10
2018-07-20T21:35:25.575Z,12.63
2018-07-20T21:37:53.655Z,14.27
2018-07-20T21:40:21.731Z,15.90
2018-07-20T21:42:49.878Z,16.00
2018-07-20T21:45:18.409Z,16.73
2018-07-20T21:47:46.503Z,17.90
2018-07-20T21:50:21.747Z,15.57
2018-07-20T21:52:50.302Z,16.63
2018-07-20T21:55:18.479Z,16.23
2018-07-20T21:57:46.580Z,15.87
2018-07-20T22:00:18.277Z,14.80
2018-07-20T22:02:47.476Z,14.20
2018-07-20T22:05:15.728Z,15.53
2018-07-20T22:07:43.992Z,14.60
2018-07-20T22:10:12.195Z,14.40
2018-07-20T22:12:40.344Z,14.80
2018-07-20T22:15:09.199Z,13.93
2018-07-20T22:17:37.700Z,13.13
2018-07-20T22:20:06.603Z,13.90
2018-07-20T22:22:34.865Z,13.47
2018-07-20T22:25:02.965Z,14.60
2018-07-20T22:27:31.029Z,14.67
2018-07-20T22:29:59.182Z,14.10
2018-07-20T22:32:27.251Z,13.47
2018-07-20T22:34:55.322Z,14.80
2018-07-20T22:37:23.441Z,13.47
2018-07-20T22:39:51.544Z,12.97
2018-07-20T22:42:19.626Z,13.20
2018-07-20T22:44:47.696Z,13.17
2018-07-20T22:47:15.768Z,12.93
2018-07-20T22:49:43.879Z,13.00
2018-07-20T22:52:11.973Z,14.00
2018-07-20T22:54:40.070Z,12.63
2018-07-20T22:57:08.315Z,11.80
2018-07-20T22:59:36.687Z,11.60
2018-07-20T23:02:04.759Z,12.47
2018-07-20T23:04:33.031Z,11.30
2018-07-20T23:07:01.163Z,11.33
2018-07-20T23:09:29.250Z,11.00
2018-07-20T23:11:57.307Z,11.40
2018-07-20T23:14:25.419Z,12.63
2018-07-20T23:16:53.609Z,11.83
2018-07-20T23:19:21.693Z,11.40
2018-07-20T23:21:49.787Z,12.00
2018-07-20T23:24:17.920Z,12.60
2018-07-20T23:26:46.080Z,11.70
2018-07-20T23:29:14.204Z,11.47
2018-07-20T23:31:42.263Z,10.80
2018-07-20T23:34:10.382Z,11.13
2018-07-20T23:36:38.515Z,10.87
2018-07-20T23:39:07.300Z,12.53
2018-07-20T23:41:35.371Z,11.47
2018-07-20T23:44:03.495Z,12.33
2018-07-20T23:46:31.597Z,11.30
2018-07-20T23:48:59.760Z,11.57
2018-07-20T23:51:27.867Z,11.80
2018-07-20T23:53:55.943Z,11.00
2018-07-20T23:56:24.022Z,12.37
2018-07-20T23:58:52.182Z,11.30
